sensor_id;sensor_type;location;lat;lon;timestamp;pressure;altitude;pressure_sealevel;temperature;humidity
67009;BME280;53922;52.080;4.748;2022-08-01T00:02:12;59801.25;;;18.17;100.00
67009;BME280;53922;52.080;4.748;2022-08-01T00:04:37;59796.97;;;18.15;100.00
67009;BME280;53922;52.080;4.748;2022-08-01T00:07:02;59799.78;;;18.23;100.00
67009;BME280;53922;52.080;4.748;2022-08-01T00:09:28;59808.81;;;18.24;100.00
67009;BME280;53922;52.080;4.748;2022-08-01T00:11:54;59804.53;;;18.23;100.00
67009;BME280;53922;52.080;4.748;2022-08-01T00:16:44;59809.94;;;18.28;100.00
67009;BME280;53922;52.080;4.748;2022-08-01T00:19:10;59813.16;;;18.28;100.00
67009;BME280;53922;52.080;4.748;2022-08-01T00:26:26;59821.25;;;18.36;100.00
67009;BME280;53922;52.080;4.748;2022-08-01T00:28:51;59823.97;;;18.39;100.00
67009;BME280;53922;52.080;4.748;2022-08-01T00:31:16;59819.69;;;18.37;100.00
67009;BME280;53922;52.080;4.748;2022-08-01T00:33:42;59822.94;;;18.40;100.00
67009;BME280;53922;52.080;4.748;2022-08-01T00:38:32;59813.69;;;18.29;100.00
67009;BME280;53922;52.080;4.748;2022-08-01T00:40:58;59805.63;;;18.24;100.00
67009;BME280;53922;52.080;4.748;2022-08-01T00:43:23;59800.34;;;18.24;100.00
67009;BME280;53922;52.080;4.748;2022-08-01T00:48:14;59800.22;;;18.19;100.00
67009;BME280;53922;52.080;4.748;2022-08-01T00:50:39;59793.72;;;18.12;100.00
67009;BME280;53922;52.080;4.748;2022-08-01T00:55:31;59796.38;;;18.12;100.00
67009;BME280;53922;52.080;4.748;2022-08-01T00:57:57;59798.06;;;18.16;100.00
67009;BME280;53922;52.080;4.748;2022-08-01T01:00:23;59806.16;;;18.24;100.00
67009;BME280;53922;52.080;4.748;2022-08-01T01:02:49;59804.53;;;18.23;100.00
67009;BME280;53922;52.080;4.748;2022-08-01T01:10:46;59820.75;;;18.38;100.00
67009;BME280;53922;52.080;4.748;2022-08-01T01:15:46;59831.03;;;18.48;100.00
67009;BME280;53922;52.080;4.748;2022-08-01T01:18:29;59833.69;;;18.48;100.00
67009;BME280;53922;52.080;4.748;2022-08-01T01:21:07;59836.88;;;18.48;100.00
67009;BME280;53922;52.080;4.748;2022-08-01T01:24:04;59837.94;;;18.49;100.00
67009;BME280;53922;52.080;4.748;2022-08-01T01:26:57;59828.34;;;18.45;100.00
67009;BME280;53922;52.080;4.748;2022-08-01T01:29:39;59825.56;;;18.40;100.00
67009;BME280;53922;52.080;4.748;2022-08-01T01:37:02;59804.47;;;18.20;100.00
67009;BME280;53922;52.080;4.748;2022-08-01T01:39:30;59806.59;;;18.20;100.00
67009;BME280;53922;52.080;4.748;2022-08-01T01:41:58;59801.16;;;18.14;100.00
67009;BME280;53922;52.080;4.748;2022-08-01T01:46:51;59786.34;;;18.13;100.00
67009;BME280;53922;52.080;4.748;2022-08-01T01:49:21;59792.66;;;18.11;100.00
67009;BME280;53922;52.080;4.748;2022-08-01T01:51:50;59791.56;;;18.10;100.00
67009;BME280;53922;52.080;4.748;2022-08-01T01:54:17;59788.84;;;18.08;100.00
67009;BME280;53922;52.080;4.748;2022-08-01T01:56:43;59789.34;;;18.06;100.00
67009;BME280;53922;52.080;4.748;2022-08-01T01:59:18;59780.75;;;18.00;100.00
67009;BME280;53922;52.080;4.748;2022-08-01T02:01:47;59786.69;;;18.06;100.00
67009;BME280;53922;52.080;4.748;2022-08-01T02:04:13;59789.41;;;18.08;100.00
67009;BME280;53922;52.080;4.748;2022-08-01T02:06:40;59782.50;;;18.07;100.00
67009;BME280;53922;52.080;4.748;2022-08-01T02:09:07;59783.44;;;18.03;100.00
67009;BME280;53922;52.080;4.748;2022-08-01T02:11:35;59787.13;;;18.01;100.00
67009;BME280;53922;52.080;4.748;2022-08-01T02:14:02;59785.00;;;18.01;100.00
67009;BME280;53922;52.080;4.748;2022-08-01T02:16:31;59779.66;;;17.99;100.00
67009;BME280;53922;52.080;4.748;2022-08-01T02:18:58;59775.88;;;17.95;100.00
67009;BME280;53922;52.080;4.748;2022-08-01T02:24:01;59773.16;;;17.93;100.00
67009;BME280;53922;52.080;4.748;2022-08-01T02:31:22;59769.81;;;17.84;100.00
67009;BME280;53922;52.080;4.748;2022-08-01T02:34:02;59765.53;;;17.83;100.00
67009;BME280;53922;52.080;4.748;2022-08-01T02:36:30;59755.84;;;17.76;100.00
67009;BME280;53922;52.080;4.748;2022-08-01T02:38:59;59749.50;;;17.75;100.00
67009;BME280;53922;52.080;4.748;2022-08-01T02:46:25;59745.59;;;17.66;100.00
67009;BME280;53922;52.080;4.748;2022-08-01T02:48:52;59743.91;;;17.62;100.00
67009;BME280;53922;52.080;4.748;2022-08-01T02:51:19;59742.88;;;17.64;100.00
67009;BME280;53922;52.080;4.748;2022-08-01T02:53:48;59739.22;;;17.65;100.00
67009;BME280;53922;52.080;4.748;2022-08-01T02:56:15;59737.47;;;17.59;100.00
67009;BME280;53922;52.080;4.748;2022-08-01T02:58:42;59737.94;;;17.57;100.00
67009;BME280;53922;52.080;4.748;2022-08-01T03:01:10;59735.31;;;17.57;100.00
67009;BME280;53922;52.080;4.748;2022-08-01T03:06:02;59734.78;;;17.56;100.00
67009;BME280;53922;52.080;4.748;2022-08-01T03:08:30;59737.41;;;17.56;100.00
67009;BME280;53922;52.080;4.748;2022-08-01T03:10:56;59737.47;;;17.59;100.00
67009;BME280;53922;52.080;4.748;2022-08-01T03:13:25;59738.00;;;17.59;100.00
67009;BME280;53922;52.080;4.748;2022-08-01T03:15:53;59736.81;;;17.53;100.00
67009;BME280;53922;52.080;4.748;2022-08-01T03:18:19;59729.38;;;17.51;100.00
67009;BME280;53922;52.080;4.748;2022-08-01T03:23:13;59726.69;;;17.48;100.00
67009;BME280;53922;52.080;4.748;2022-08-01T03:25:41;59733.16;;;17.55;100.00
67009;BME280;53922;52.080;4.748;2022-08-01T03:30:35;59741.81;;;17.63;100.00
67009;BME280;53922;52.080;4.748;2022-08-01T03:37:55;59740.13;;;17.59;100.00
67009;BME280;53922;52.080;4.748;2022-08-01T03:40:23;59727.34;;;17.54;100.00
67009;BME280;53922;52.080;4.748;2022-08-01T03:42:53;59736.34;;;17.55;100.00
67009;BME280;53922;52.080;4.748;2022-08-01T03:50:26;59734.25;;;17.56;100.00
67009;BME280;53922;52.080;4.748;2022-08-01T03:52:53;59734.19;;;17.53;100.00
67009;BME280;53922;52.080;4.748;2022-08-01T03:55:20;59728.81;;;17.50;100.00
67009;BME280;53922;52.080;4.748;2022-08-01T03:57:47;59728.81;;;17.50;100.00
67009;BME280;53922;52.080;4.748;2022-08-01T04:05:09;59733.16;;;17.55;100.00
67009;BME280;53922;52.080;4.748;2022-08-01T04:07:35;59733.16;;;17.55;100.00
67009;BME280;53922;52.080;4.748;2022-08-01T04:10:01;59731.00;;;17.52;100.00
67009;BME280;53922;52.080;4.748;2022-08-01T04:12:26;59726.69;;;17.48;100.00
67009;BME280;53922;52.080;4.748;2022-08-01T04:14:52;59727.22;;;17.49;100.00
67009;BME280;53922;52.080;4.748;2022-08-01T04:17:18;59727.22;;;17.49;100.00
67009;BME280;53922;52.080;4.748;2022-08-01T04:19:44;59730.47;;;17.52;100.00
67009;BME280;53922;52.080;4.748;2022-08-01T04:22:11;59730.47;;;17.52;100.00
67009;BME280;53922;52.080;4.748;2022-08-01T04:27:07;59738.00;;;17.59;100.00
67009;BME280;53922;52.080;4.748;2022-08-01T04:29:35;59736.53;;;17.63;100.00
67009;BME280;53922;52.080;4.748;2022-08-01T04:32:02;59739.09;;;17.60;100.00
67009;BME280;53922;52.080;4.748;2022-08-01T04:34:30;59736.53;;;17.63;100.00
67009;BME280;53922;52.080;4.748;2022-08-01T04:36:57;59741.81;;;17.63;100.00
67009;BME280;53922;52.080;4.748;2022-08-01T04:41:52;59750.47;;;17.71;100.00
67009;BME280;53922;52.080;4.748;2022-08-01T04:46:47;59762.22;;;17.77;100.00
67009;BME280;53922;52.080;4.748;2022-08-01T04:49:13;59754.25;;;17.75;100.00
67009;BME280;53922;52.080;4.748;2022-08-01T04:54:26;59746.66;;;17.67;100.00
67009;BME280;53922;52.080;4.748;2022-08-01T04:56:53;59749.31;;;17.67;100.00
67009;BME280;53922;52.080;4.748;2022-08-01T04:59:19;59749.94;;;17.71;100.00
67009;BME280;53922;52.080;4.748;2022-08-01T05:06:54;59753.16;;;17.74;100.00
67009;BME280;53922;52.080;4.748;2022-08-01T05:09:19;59753.16;;;17.74;100.00
67009;BME280;53922;52.080;4.748;2022-08-01T05:11:45;59756.88;;;17.75;100.00
67009;BME280;53922;52.080;4.748;2022-08-01T05:14:10;59753.16;;;17.74;100.00
67009;BME280;53922;52.080;4.748;2022-08-01T05:16:36;59755.25;;;17.73;100.00
67009;BME280;53922;52.080;4.748;2022-08-01T05:19:01;59756.94;;;17.77;100.00
67009;BME280;53922;52.080;4.748;2022-08-01T05:23:52;59767.16;;;17.84;100.00
67009;BME280;53922;52.080;4.748;2022-08-01T05:26:18;59768.84;;;17.89;100.00
67009;BME280;53922;52.080;4.748;2022-08-01T05:31:08;59775.34;;;17.95;100.00
67009;BME280;53922;52.080;4.748;2022-08-01T05:33:34;59768.28;;;17.88;100.00
67009;BME280;53922;52.080;4.748;2022-08-01T05:38:24;59773.72;;;17.93;100.00
67009;BME280;53922;52.080;4.748;2022-08-01T05:50:32;59780.22;;;17.99;100.00
67009;BME280;53922;52.080;4.748;2022-08-01T05:55:23;59787.25;;;18.06;100.00
67009;BME280;53922;52.080;4.748;2022-08-01T06:00:14;59781.84;;;18.01;100.00
67009;BME280;53922;52.080;4.748;2022-08-01T06:02:43;59788.84;;;18.08;100.00
67009;BME280;53922;52.080;4.748;2022-08-01T06:05:09;59782.91;;;18.02;100.00
67009;BME280;53922;52.080;4.748;2022-08-01T06:07:35;59785.06;;;18.04;100.00
67009;BME280;53922;52.080;4.748;2022-08-01T06:12:26;59794.19;;;18.10;100.00
67009;BME280;53922;52.080;4.748;2022-08-01T06:14:51;59787.91;;;18.12;100.00
67009;BME280;53922;52.080;4.748;2022-08-01T06:22:07;59790.47;;;18.09;100.00
67009;BME280;53922;52.080;4.748;2022-08-01T06:24:32;59779.66;;;17.99;100.00
67009;BME280;53922;52.080;4.748;2022-08-01T06:26:58;59780.22;;;17.99;100.00
67009;BME280;53922;52.080;4.748;2022-08-01T06:31:49;59778.59;;;17.98;100.00
67009;BME280;53922;52.080;4.748;2022-08-01T06:36:40;59770.59;;;17.95;100.00
67009;BME280;53922;52.080;4.748;2022-08-01T06:41:31;59763.56;;;17.89;100.00
67009;BME280;53922;52.080;4.748;2022-08-01T06:46:22;59769.91;;;17.90;100.00
67009;BME280;53922;52.080;4.748;2022-08-01T06:48:48;59768.84;;;17.89;100.00
67009;BME280;53922;52.080;4.748;2022-08-01T06:51:13;59756.94;;;17.77;100.00
67009;BME280;53922;52.080;4.748;2022-08-01T06:53:41;59761.25;;;17.81;100.00
67009;BME280;53922;52.080;4.748;2022-08-01T06:58:34;59752.63;;;17.73;100.00
67009;BME280;53922;52.080;4.748;2022-08-01T07:01:00;59741.28;;;17.62;100.00
67009;BME280;53922;52.080;4.748;2022-08-01T07:13:06;59747.19;;;17.68;100.00
67009;BME280;53922;52.080;4.748;2022-08-01T07:22:49;59746.66;;;17.67;100.00
67009;BME280;53922;52.080;4.748;2022-08-01T07:25:14;59748.84;;;17.69;100.00
67009;BME280;53922;52.080;4.748;2022-08-01T07:30:06;59741.81;;;17.63;100.00
67009;BME280;53922;52.080;4.748;2022-08-01T07:32:31;59745.59;;;17.66;100.00
67009;BME280;53922;52.080;4.748;2022-08-01T07:34:57;59741.28;;;17.62;100.00
67009;BME280;53922;52.080;4.748;2022-08-01T07:37:22;59737.47;;;17.59;100.00
67009;BME280;53922;52.080;4.748;2022-08-01T07:44:39;59747.13;;;17.65;100.00
67009;BME280;53922;52.080;4.748;2022-08-01T07:47:05;59741.28;;;17.62;99.35
67009;BME280;53922;52.080;4.748;2022-08-01T07:51:56;59756.88;;;17.75;100.00
67009;BME280;53922;52.080;4.748;2022-08-01T07:54:21;59752.75;;;17.78;99.89
67009;BME280;53922;52.080;4.748;2022-08-01T08:01:39;59784.00;;;18.03;97.41
67009;BME280;53922;52.080;4.748;2022-08-01T08:04:04;59786.03;;;18.00;95.50
67009;BME280;53922;52.080;4.748;2022-08-01T08:08:55;59800.69;;;18.16;96.82
67009;BME280;53922;52.080;4.748;2022-08-01T08:11:20;59801.44;;;18.25;97.43
67009;BME280;53922;52.080;4.748;2022-08-01T08:13:46;59809.34;;;18.25;96.07
67009;BME280;53922;52.080;4.748;2022-08-01T08:21:03;59832.66;;;18.49;92.34
67009;BME280;53922;52.080;4.748;2022-08-01T08:31:02;59843.50;;;18.60;93.71
67009;BME280;53922;52.080;4.748;2022-08-01T08:33:28;59841.84;;;18.58;93.05
67009;BME280;53922;52.080;4.748;2022-08-01T08:35:53;59842.94;;;18.59;91.97
67009;BME280;53922;52.080;4.748;2022-08-01T08:38:19;59853.69;;;18.67;92.12
67009;BME280;53922;52.080;4.748;2022-08-01T08:43:11;59875.97;;;18.91;91.01
67009;BME280;53922;52.080;4.748;2022-08-01T08:45:37;59906.28;;;19.20;89.97
67009;BME280;53922;52.080;4.748;2022-08-01T08:48:05;59904.66;;;19.18;86.78
67009;BME280;53922;52.080;4.748;2022-08-01T08:50:31;59915.47;;;19.28;88.91
67009;BME280;53922;52.080;4.748;2022-08-01T08:52:59;59925.19;;;19.35;87.02
67009;BME280;53922;52.080;4.748;2022-08-01T08:55:26;59929.56;;;19.42;86.61
67009;BME280;53922;52.080;4.748;2022-08-01T08:57:53;59932.25;;;19.44;85.27
67009;BME280;53922;52.080;4.748;2022-08-01T09:00:19;59931.72;;;19.44;86.63
67009;BME280;53922;52.080;4.748;2022-08-01T09:02:46;59924.69;;;19.37;82.20
67009;BME280;53922;52.080;4.748;2022-08-01T09:07:39;59936.59;;;19.49;84.02
67009;BME280;53922;52.080;4.748;2022-08-01T09:10:05;59960.97;;;19.72;83.94
67009;BME280;53922;52.080;4.748;2022-08-01T09:12:31;59993.41;;;20.00;83.38
67009;BME280;53922;52.080;4.748;2022-08-01T09:14:56;60037.31;;;20.42;82.54
67009;BME280;53922;52.080;4.748;2022-08-01T09:17:22;60062.31;;;20.68;78.31
67009;BME280;53922;52.080;4.748;2022-08-01T09:19:50;60072.56;;;20.75;78.11
67009;BME280;53922;52.080;4.748;2022-08-01T09:25:04;60052.50;;;20.56;75.95
67009;BME280;53922;52.080;4.748;2022-08-01T09:27:30;60068.28;;;20.74;78.60
67009;BME280;53922;52.080;4.748;2022-08-01T09:30:10;60049.84;;;20.56;75.83
67009;BME280;53922;52.080;4.748;2022-08-01T09:32:37;60060.16;;;20.66;77.62
67009;BME280;53922;52.080;4.748;2022-08-01T09:35:27;60045.50;;;20.52;78.02
67009;BME280;53922;52.080;4.748;2022-08-01T09:38:12;60029.78;;;20.37;78.94
67009;BME280;53922;52.080;4.748;2022-08-01T09:43:20;60017.28;;;20.23;79.96
67009;BME280;53922;52.080;4.748;2022-08-01T09:45:46;60013.47;;;20.19;79.30
67009;BME280;53922;52.080;4.748;2022-08-01T09:50:49;60041.13;;;20.46;80.74
67009;BME280;53922;52.080;4.748;2022-08-01T09:55:41;60109.06;;;21.18;75.46
67009;BME280;53922;52.080;4.748;2022-08-01T09:58:07;60164.78;;;21.63;74.58
67009;BME280;53922;52.080;4.748;2022-08-01T10:00:34;60191.44;;;21.91;71.81
67009;BME280;53922;52.080;4.748;2022-08-01T10:03:19;60164.84;;;21.66;71.51
67009;BME280;53922;52.080;4.748;2022-08-01T10:08:10;60140.84;;;21.38;74.64
67009;BME280;53922;52.080;4.748;2022-08-01T10:10:37;60140.38;;;21.40;75.14
67009;BME280;53922;52.080;4.748;2022-08-01T10:13:03;60125.88;;;21.34;73.59
67009;BME280;53922;52.080;4.748;2022-08-01T10:15:30;60149.66;;;21.51;73.13
67009;BME280;53922;52.080;4.748;2022-08-01T10:17:57;60169.09;;;21.65;72.13
67009;BME280;53922;52.080;4.748;2022-08-01T10:20:26;60193.59;;;21.93;72.00
67009;BME280;53922;52.080;4.748;2022-08-01T10:22:53;60212.63;;;22.11;68.89
67009;BME280;53922;52.080;4.748;2022-08-01T10:25:20;60234.31;;;22.32;70.27
67009;BME280;53922;52.080;4.748;2022-08-01T10:27:48;60271.75;;;22.65;70.05
67009;BME280;53922;52.080;4.748;2022-08-01T10:30:15;60295.59;;;22.85;68.44
67009;BME280;53922;52.080;4.748;2022-08-01T10:32:41;60302.72;;;22.94;67.41
67009;BME280;53922;52.080;4.748;2022-08-01T10:37:34;60265.84;;;22.62;67.71
67009;BME280;53922;52.080;4.748;2022-08-01T10:42:26;60261.97;;;22.56;68.32
67009;BME280;53922;52.080;4.748;2022-08-01T10:44:52;60260.94;;;22.57;67.53
67009;BME280;53922;52.080;4.748;2022-08-01T10:47:24;60246.41;;;22.48;68.84
67009;BME280;53922;52.080;4.748;2022-08-01T10:50:01;60213.69;;;22.12;68.81
67009;BME280;53922;52.080;4.748;2022-08-01T10:52:27;60193.59;;;21.93;70.14
67009;BME280;53922;52.080;4.748;2022-08-01T10:55:06;60184.94;;;21.85;68.29
67009;BME280;53922;52.080;4.748;2022-08-01T11:00:07;60167.03;;;21.68;71.00
67009;BME280;53922;52.080;4.748;2022-08-01T11:02:33;60159.53;;;21.66;70.02
67009;BME280;53922;52.080;4.748;2022-08-01T11:05:05;60166.91;;;21.63;68.75
67009;BME280;53922;52.080;4.748;2022-08-01T11:07:42;60184.38;;;21.84;68.52
67009;BME280;53922;52.080;4.748;2022-08-01T11:12:41;60265.84;;;22.62;64.63
67009;BME280;53922;52.080;4.748;2022-08-01T11:22:30;60239.78;;;22.37;68.31
67009;BME280;53922;52.080;4.748;2022-08-01T11:24:55;60251.72;;;22.48;66.08
67009;BME280;53922;52.080;4.748;2022-08-01T11:30:23;60209.34;;;22.08;66.24
67009;BME280;53922;52.080;4.748;2022-08-01T11:32:53;60195.22;;;21.95;67.71
67009;BME280;53922;52.080;4.748;2022-08-01T11:35:19;60177.81;;;21.76;66.15
67009;BME280;53922;52.080;4.748;2022-08-01T11:37:54;60195.19;;;21.92;66.94
67009;BME280;53922;52.080;4.748;2022-08-01T11:40:25;60226.72;;;22.25;66.39
67009;BME280;53922;52.080;4.748;2022-08-01T11:45:49;60308.38;;;23.10;64.46
67009;BME280;53922;52.080;4.748;2022-08-01T11:48:25;60341.31;;;23.31;62.50
67009;BME280;53922;52.080;4.748;2022-08-01T11:50:52;60362.03;;;23.53;62.83
67009;BME280;53922;52.080;4.748;2022-08-01T11:53:19;60375.19;;;23.71;62.23
67009;BME280;53922;52.080;4.748;2022-08-01T11:55:49;60411.47;;;23.97;57.60
67009;BME280;53922;52.080;4.748;2022-08-01T11:58:16;60419.56;;;24.03;59.76
67009;BME280;53922;52.080;4.748;2022-08-01T12:00:53;60432.69;;;24.18;60.73
67009;BME280;53922;52.080;4.748;2022-08-01T12:03:31;60410.53;;;24.04;56.76
67009;BME280;53922;52.080;4.748;2022-08-01T12:05:58;60388.22;;;23.83;55.89
67009;BME280;53922;52.080;4.748;2022-08-01T12:08:33;60424.56;;;24.12;56.58
67009;BME280;53922;52.080;4.748;2022-08-01T12:11:00;60428.91;;;24.17;59.04
67009;BME280;53922;52.080;4.748;2022-08-01T12:13:26;60438.13;;;24.23;55.63
67009;BME280;53922;52.080;4.748;2022-08-01T12:18:17;60426.09;;;24.09;55.84
67009;BME280;53922;52.080;4.748;2022-08-01T12:20:45;60381.59;;;23.72;55.45
67009;BME280;53922;52.080;4.748;2022-08-01T12:23:13;60348.94;;;23.38;58.98
67009;BME280;53922;52.080;4.748;2022-08-01T12:25:39;60350.06;;;23.42;57.37
67009;BME280;53922;52.080;4.748;2022-08-01T12:28:07;60322.91;;;23.16;57.35
67009;BME280;53922;52.080;4.748;2022-08-01T12:30:34;60334.84;;;23.27;58.02
67009;BME280;53922;52.080;4.748;2022-08-01T12:33:03;60332.66;;;23.25;57.90
67009;BME280;53922;52.080;4.748;2022-08-01T12:35:30;60352.78;;;23.44;56.75
67009;BME280;53922;52.080;4.748;2022-08-01T12:40:28;60351.09;;;23.40;56.46
67009;BME280;53922;52.080;4.748;2022-08-01T12:45:25;60345.13;;;23.34;56.17
67009;BME280;53922;52.080;4.748;2022-08-01T12:47:52;60336.47;;;23.29;56.68
67009;BME280;53922;52.080;4.748;2022-08-01T12:50:20;60339.69;;;23.29;55.83
67009;BME280;53922;52.080;4.748;2022-08-01T12:55:19;60362.56;;;23.54;53.91
67009;BME280;53922;52.080;4.748;2022-08-01T12:57:50;60364.19;;;23.55;54.31
67009;BME280;53922;52.080;4.748;2022-08-01T13:00:27;60329.91;;;23.20;54.26
67009;BME280;53922;52.080;4.748;2022-08-01T13:05:51;60296.78;;;22.91;54.17
67009;BME280;53922;52.080;4.748;2022-08-01T13:08:21;60317.97;;;23.11;53.57
67009;BME280;53922;52.080;4.748;2022-08-01T13:10:47;60343.00;;;23.35;54.97
67009;BME280;53922;52.080;4.748;2022-08-01T13:13:15;60332.13;;;23.25;53.40
67009;BME280;53922;52.080;4.748;2022-08-01T13:15:41;60353.31;;;23.45;54.26
67009;BME280;53922;52.080;4.748;2022-08-01T13:18:29;60350.06;;;23.42;54.38
67009;BME280;53922;52.080;4.748;2022-08-01T13:21:16;60346.81;;;23.39;54.64
67009;BME280;53922;52.080;4.748;2022-08-01T13:24:02;60368.50;;;23.57;54.44
67009;BME280;53922;52.080;4.748;2022-08-01T13:29:06;60334.78;;;23.25;57.26
67009;BME280;53922;52.080;4.748;2022-08-01T13:31:33;60314.19;;;23.08;56.03
67009;BME280;53922;52.080;4.748;2022-08-01T13:33:59;60300.59;;;22.95;57.01
67009;BME280;53922;52.080;4.748;2022-08-01T13:38:52;60278.81;;;22.72;57.61
67009;BME280;53922;52.080;4.748;2022-08-01T13:44:01;60299.47;;;22.91;56.42
67009;BME280;53922;52.080;4.748;2022-08-01T13:48:52;60301.16;;;22.95;56.83
67009;BME280;53922;52.080;4.748;2022-08-01T13:51:17;60312.00;;;23.06;56.65
67009;BME280;53922;52.080;4.748;2022-08-01T13:56:08;60310.34;;;23.01;53.91
67009;BME280;53922;52.080;4.748;2022-08-01T13:58:33;60321.69;;;23.10;55.00
67009;BME280;53922;52.080;4.748;2022-08-01T14:00:58;60315.25;;;23.09;56.09
67009;BME280;53922;52.080;4.748;2022-08-01T14:03:24;60304.50;;;23.03;56.27
67009;BME280;53922;52.080;4.748;2022-08-01T14:05:49;60313.59;;;23.05;56.57
67009;BME280;53922;52.080;4.748;2022-08-01T14:15:31;60259.31;;;22.56;56.47
67009;BME280;53922;52.080;4.748;2022-08-01T14:20:22;60305.50;;;22.99;55.33
67009;BME280;53922;52.080;4.748;2022-08-01T14:22:48;60284.84;;;22.80;55.10
67009;BME280;53922;52.080;4.748;2022-08-01T14:25:14;60300.06;;;22.94;56.15
67009;BME280;53922;52.080;4.748;2022-08-01T14:27:40;60283.13;;;22.73;54.91
67009;BME280;53922;52.080;4.748;2022-08-01T14:30:07;60266.38;;;22.62;57.27
67009;BME280;53922;52.080;4.748;2022-08-01T14:37:24;60246.84;;;22.44;55.90
67009;BME280;53922;52.080;4.748;2022-08-01T14:39:49;60267.03;;;22.68;57.16
67009;BME280;53922;52.080;4.748;2022-08-01T14:44:40;60302.78;;;22.97;55.99
67009;BME280;53922;52.080;4.748;2022-08-01T14:49:30;60324.94;;;23.13;55.82
67009;BME280;53922;52.080;4.748;2022-08-01T14:51:56;60314.19;;;23.08;53.11
67009;BME280;53922;52.080;4.748;2022-08-01T14:56:46;60305.97;;;22.97;55.09
67009;BME280;53922;52.080;4.748;2022-08-01T14:59:12;60301.16;;;22.95;52.78
67009;BME280;53922;52.080;4.748;2022-08-01T15:04:02;60289.69;;;22.82;55.81
67009;BME280;53922;52.080;4.748;2022-08-01T15:08:53;60256.00;;;22.50;55.54
67009;BME280;53922;52.080;4.748;2022-08-01T15:11:18;60236.44;;;22.31;53.83
67009;BME280;53922;52.080;4.748;2022-08-01T15:13:44;60244.13;;;22.41;55.95
67009;BME280;53922;52.080;4.748;2022-08-01T15:16:09;60246.84;;;22.44;55.62
67009;BME280;53922;52.080;4.748;2022-08-01T15:18:35;60256.06;;;22.52;53.64
67009;BME280;53922;52.080;4.748;2022-08-01T15:21:00;60259.81;;;22.53;55.20
67009;BME280;53922;52.080;4.748;2022-08-01T15:23:26;60250.03;;;22.44;54.32
67009;BME280;53922;52.080;4.748;2022-08-01T15:25:51;60250.56;;;22.45;53.82
67009;BME280;53922;52.080;4.748;2022-08-01T15:28:17;60264.75;;;22.61;52.47
67009;BME280;53922;52.080;4.748;2022-08-01T15:30:42;60267.47;;;22.63;53.56
67009;BME280;53922;52.080;4.748;2022-08-01T15:35:33;60267.47;;;22.63;53.36
67009;BME280;53922;52.080;4.748;2022-08-01T15:37:58;60258.25;;;22.54;52.54
67009;BME280;53922;52.080;4.748;2022-08-01T15:40:24;60268.56;;;22.64;52.81
67009;BME280;53922;52.080;4.748;2022-08-01T15:45:14;60245.69;;;22.40;51.77
67009;BME280;53922;52.080;4.748;2022-08-01T15:47:43;60248.31;;;22.37;50.97
67009;BME280;53922;52.080;4.748;2022-08-01T15:52:34;60253.91;;;22.50;51.94
67009;BME280;53922;52.080;4.748;2022-08-01T15:55:00;60250.63;;;22.47;51.78
67009;BME280;53922;52.080;4.748;2022-08-01T15:57:25;60218.59;;;22.17;51.25
67009;BME280;53922;52.080;4.748;2022-08-01T15:59:51;60219.66;;;22.18;51.14
67009;BME280;53922;52.080;4.748;2022-08-01T16:02:16;60228.28;;;22.24;50.78
67009;BME280;53922;52.080;4.748;2022-08-01T16:04:41;60218.03;;;22.16;52.42
67009;BME280;53922;52.080;4.748;2022-08-01T16:09:32;60245.09;;;22.37;49.77
67009;BME280;53922;52.080;4.748;2022-08-01T16:11:58;60244.06;;;22.38;49.23
67009;BME280;53922;52.080;4.748;2022-08-01T16:14:23;60255.00;;;22.51;51.31
67009;BME280;53922;52.080;4.748;2022-08-01T16:16:49;60257.69;;;22.54;50.08
67009;BME280;53922;52.080;4.748;2022-08-01T16:19:14;60235.84;;;22.28;46.59
67009;BME280;53922;52.080;4.748;2022-08-01T16:21:39;60223.41;;;22.19;47.87
67009;BME280;53922;52.080;4.748;2022-08-01T16:24:05;60226.13;;;22.21;49.33
67009;BME280;53922;52.080;4.748;2022-08-01T16:26:30;60216.34;;;22.12;49.37
67009;BME280;53922;52.080;4.748;2022-08-01T16:28:56;60221.28;;;22.19;48.54
67009;BME280;53922;52.080;4.748;2022-08-01T16:31:22;60222.31;;;22.18;48.17
67009;BME280;53922;52.080;4.748;2022-08-01T16:33:50;60200.13;;;21.99;48.48
67009;BME280;53922;52.080;4.748;2022-08-01T16:36:18;60207.19;;;22.06;50.85
67009;BME280;53922;52.080;4.748;2022-08-01T16:41:09;60203.94;;;22.03;48.80
67009;BME280;53922;52.080;4.748;2022-08-01T16:43:34;60200.69;;;22.00;51.05
67009;BME280;53922;52.080;4.748;2022-08-01T16:46:03;60202.84;;;22.02;53.72
67009;BME280;53922;52.080;4.748;2022-08-01T16:48:29;60200.69;;;22.00;50.22
67009;BME280;53922;52.080;4.748;2022-08-01T16:50:54;60198.97;;;21.96;48.54
67009;BME280;53922;52.080;4.748;2022-08-01T16:55:45;60195.19;;;21.92;50.80
67009;BME280;53922;52.080;4.748;2022-08-01T16:58:12;60202.19;;;21.96;53.94
67009;BME280;53922;52.080;4.748;2022-08-01T17:03:13;60207.19;;;22.06;50.19
67009;BME280;53922;52.080;4.748;2022-08-01T17:05:39;60196.81;;;21.94;52.29
67009;BME280;53922;52.080;4.748;2022-08-01T17:08:05;60191.44;;;21.91;50.92
67009;BME280;53922;52.080;4.748;2022-08-01T17:12:57;60169.69;;;21.68;50.16
67009;BME280;53922;52.080;4.748;2022-08-01T17:15:23;60161.06;;;21.62;49.33
67009;BME280;53922;52.080;4.748;2022-08-01T17:17:56;60146.38;;;21.48;49.26
67009;BME280;53922;52.080;4.748;2022-08-01T17:20:22;60134.44;;;21.37;52.18
67009;BME280;53922;52.080;4.748;2022-08-01T17:22:48;60137.66;;;21.37;52.10
67009;BME280;53922;52.080;4.748;2022-08-01T17:25:13;60145.72;;;21.43;53.13
67009;BME280;53922;52.080;4.748;2022-08-01T17:27:39;60134.38;;;21.34;51.54
67009;BME280;53922;52.080;4.748;2022-08-01T17:30:05;60121.44;;;21.24;51.46
67009;BME280;53922;52.080;4.748;2022-08-01T17:32:30;60121.97;;;21.25;55.00
67009;BME280;53922;52.080;4.748;2022-08-01T17:37:22;60114.31;;;21.15;55.38
67009;BME280;53922;52.080;4.748;2022-08-01T17:39:48;60114.38;;;21.18;54.42